sensor_id;sensor_type;location;lat;lon;timestamp;pressure;altitude;pressure_sealevel;temperature;humidity
48204;BME280;33994;50.998;5.864;2022-07-04T00:01:02;101516.09;;;16.33;63.55
48204;BME280;33994;50.998;5.864;2022-07-04T00:04:06;101508.28;;;16.28;64.04
48204;BME280;33994;50.998;5.864;2022-07-04T00:07:10;101503.22;;;16.20;64.09
48204;BME280;33994;50.998;5.864;2022-07-04T00:10:17;101497.22;;;16.15;64.34
48204;BME280;33994;50.998;5.864;2022-07-04T00:13:22;101502.56;;;16.12;64.50
48204;BME280;33994;50.998;5.864;2022-07-04T00:16:26;101505.25;;;16.11;64.38
48204;BME280;33994;50.998;5.864;2022-07-04T00:19:31;101493.00;;;16.08;64.60
48204;BME280;33994;50.998;5.864;2022-07-04T00:22:36;101500.09;;;16.06;64.92
48204;BME280;33994;50.998;5.864;2022-07-04T00:25:40;101497.53;;;16.03;64.96
48204;BME280;33994;50.998;5.864;2022-07-04T00:28:45;101499.41;;;15.98;65.16
48204;BME280;33994;50.998;5.864;2022-07-04T00:31:49;101494.25;;;15.95;65.49
48204;BME280;33994;50.998;5.864;2022-07-04T00:34:54;101497.97;;;15.88;65.70
48204;BME280;33994;50.998;5.864;2022-07-04T00:37:58;101501.72;;;15.79;66.09
48204;BME280;33994;50.998;5.864;2022-07-04T00:41:02;101498.41;;;15.69;66.60
48204;BME280;33994;50.998;5.864;2022-07-04T00:44:09;101502.22;;;15.57;66.88
48204;BME280;33994;50.998;5.864;2022-07-04T00:47:13;101493.50;;;15.54;67.28
48204;BME280;33994;50.998;5.864;2022-07-04T00:50:18;101490.03;;;15.52;67.41
48204;BME280;33994;50.998;5.864;2022-07-04T00:53:22;101485.75;;;15.48;67.69
48204;BME280;33994;50.998;5.864;2022-07-04T00:56:27;101491.13;;;15.43;67.77
48204;BME280;33994;50.998;5.864;2022-07-04T00:59:31;101486.78;;;15.41;67.80
48204;BME280;33994;50.998;5.864;2022-07-04T01:02:35;101482.50;;;15.37;68.07
48204;BME280;33994;50.998;5.864;2022-07-04T01:05:40;101485.22;;;15.33;68.11
48204;BME280;33994;50.998;5.864;2022-07-04T01:08:46;101494.97;;;15.30;68.17
48204;BME280;33994;50.998;5.864;2022-07-04T01:11:51;101487.22;;;15.24;68.31
48204;BME280;33994;50.998;5.864;2022-07-04T01:14:55;101492.59;;;15.19;68.55
48204;BME280;33994;50.998;5.864;2022-07-04T01:17:59;101493.53;;;15.17;68.61
48204;BME280;33994;50.998;5.864;2022-07-04T01:21:04;101487.44;;;15.15;68.82
48204;BME280;33994;50.998;5.864;2022-07-04T01:24:12;101498.06;;;15.10;69.10
48204;BME280;33994;50.998;5.864;2022-07-04T01:27:17;101479.78;;;15.02;69.39
48204;BME280;33994;50.998;5.864;2022-07-04T01:30:21;101486.09;;;14.97;69.50
48204;BME280;33994;50.998;5.864;2022-07-04T01:33:26;101480.88;;;14.94;69.61
48204;BME280;33994;50.998;5.864;2022-07-04T01:36:31;101478.31;;;14.91;69.97
48204;BME280;33994;50.998;5.864;2022-07-04T01:39:35;101471.38;;;14.87;69.79
48204;BME280;33994;50.998;5.864;2022-07-04T01:42:40;101463.63;;;14.80;69.94
48204;BME280;33994;50.998;5.864;2022-07-04T01:45:45;101471.59;;;14.77;69.81
48204;BME280;33994;50.998;5.864;2022-07-04T01:48:49;101474.41;;;14.70;70.05
48204;BME280;33994;50.998;5.864;2022-07-04T01:51:54;101483.22;;;14.67;70.31
48204;BME280;33994;50.998;5.864;2022-07-04T01:54:58;101476.31;;;14.62;70.31
48204;BME280;33994;50.998;5.864;2022-07-04T01:58:02;101473.84;;;14.54;70.38
48204;BME280;33994;50.998;5.864;2022-07-04T02:01:07;101489.72;;;14.49;70.32
48204;BME280;33994;50.998;5.864;2022-07-04T02:04:29;101490.00;;;14.35;70.65
48204;BME280;33994;50.998;5.864;2022-07-04T02:07:33;101490.19;;;14.25;70.75
48204;BME280;33994;50.998;5.864;2022-07-04T02:10:38;101495.72;;;14.13;71.28
48204;BME280;33994;50.998;5.864;2022-07-04T02:13:42;101494.00;;;14.10;71.37
48204;BME280;33994;50.998;5.864;2022-07-04T02:16:45;101501.88;;;14.10;71.25
48204;BME280;33994;50.998;5.864;2022-07-04T02:19:50;101494.03;;;14.07;71.49
48204;BME280;33994;50.998;5.864;2022-07-04T02:22:54;101504.66;;;14.04;71.47
48204;BME280;33994;50.998;5.864;2022-07-04T02:25:59;101500.22;;;14.06;71.29
48204;BME280;33994;50.998;5.864;2022-07-04T02:29:03;101509.06;;;14.02;71.38
48204;BME280;33994;50.998;5.864;2022-07-04T02:32:08;101502.16;;;13.96;71.58
48204;BME280;33994;50.998;5.864;2022-07-04T02:35:12;101509.22;;;13.93;71.73
48204;BME280;33994;50.998;5.864;2022-07-04T02:38:16;101514.50;;;13.93;71.84
48204;BME280;33994;50.998;5.864;2022-07-04T02:41:21;101511.81;;;13.96;71.72
48204;BME280;33994;50.998;5.864;2022-07-04T02:44:25;101508.22;;;14.00;71.79
48204;BME280;33994;50.998;5.864;2022-07-04T02:47:30;101521.44;;;13.95;71.77
48204;BME280;33994;50.998;5.864;2022-07-04T02:50:34;101522.34;;;13.94;71.88
48204;BME280;33994;50.998;5.864;2022-07-04T02:53:39;101528.47;;;13.95;71.95
48204;BME280;33994;50.998;5.864;2022-07-04T02:56:43;101533.00;;;13.86;72.13
48204;BME280;33994;50.998;5.864;2022-07-04T02:59:47;101520.84;;;13.79;72.47
48204;BME280;33994;50.998;5.864;2022-07-04T03:02:53;101533.84;;;13.87;72.37
48204;BME280;33994;50.998;5.864;2022-07-04T03:05:58;101535.66;;;13.85;72.30
48204;BME280;33994;50.998;5.864;2022-07-04T03:09:02;101539.19;;;13.82;72.20
48204;BME280;33994;50.998;5.864;2022-07-04T03:12:07;101536.66;;;13.78;72.32
48204;BME280;33994;50.998;5.864;2022-07-04T03:15:11;101535.88;;;13.71;72.63
48204;BME280;33994;50.998;5.864;2022-07-04T03:18:16;101544.66;;;13.70;72.66
48204;BME280;33994;50.998;5.864;2022-07-04T03:21:20;101543.00;;;13.66;72.71
48204;BME280;33994;50.998;5.864;2022-07-04T03:24:25;101544.75;;;13.64;72.60
48204;BME280;33994;50.998;5.864;2022-07-04T03:27:29;101550.88;;;13.65;72.60
48204;BME280;33994;50.998;5.864;2022-07-04T03:30:33;101549.16;;;13.63;72.75
48204;BME280;33994;50.998;5.864;2022-07-04T03:33:38;101550.06;;;13.61;72.77
48204;BME280;33994;50.998;5.864;2022-07-04T03:36:42;101551.84;;;13.59;72.78
48204;BME280;33994;50.998;5.864;2022-07-04T03:39:46;101552.81;;;13.55;72.98
48204;BME280;33994;50.998;5.864;2022-07-04T03:42:50;101545.84;;;13.51;73.01
48204;BME280;33994;50.998;5.864;2022-07-04T03:45:55;101549.34;;;13.48;73.24
48204;BME280;33994;50.998;5.864;2022-07-04T03:48:59;101546.72;;;13.48;73.10
48204;BME280;33994;50.998;5.864;2022-07-04T03:52:04;101547.63;;;13.50;73.12
48204;BME280;33994;50.998;5.864;2022-07-04T03:55:09;101546.72;;;13.50;73.23
48204;BME280;33994;50.998;5.864;2022-07-04T03:58:13;101548.50;;;13.51;73.21
48204;BME280;33994;50.998;5.864;2022-07-04T04:01:18;101547.59;;;13.52;73.11
48204;BME280;33994;50.998;5.864;2022-07-04T04:04:23;101554.56;;;13.53;73.48
48204;BME280;33994;50.998;5.864;2022-07-04T04:07:45;101557.28;;;13.47;73.57
48204;BME280;33994;50.998;5.864;2022-07-04T04:10:49;101550.25;;;13.46;73.76
48204;BME280;33994;50.998;5.864;2022-07-04T04:13:54;101559.88;;;13.50;73.83
48204;BME280;33994;50.998;5.864;2022-07-04T04:16:59;101562.50;;;13.50;73.78
48204;BME280;33994;50.998;5.864;2022-07-04T04:20:03;101556.34;;;13.52;73.87
48204;BME280;33994;50.998;5.864;2022-07-04T04:23:08;101560.66;;;13.58;73.81
48204;BME280;33994;50.998;5.864;2022-07-04T04:26:12;101565.81;;;13.62;73.57
48204;BME280;33994;50.998;5.864;2022-07-04T04:29:17;101564.06;;;13.63;73.56
48204;BME280;33994;50.998;5.864;2022-07-04T04:32:21;101576.22;;;13.70;73.55
48204;BME280;33994;50.998;5.864;2022-07-04T04:35:25;101577.00;;;13.75;73.54
48204;BME280;33994;50.998;5.864;2022-07-04T04:38:30;101572.53;;;13.80;73.15
48204;BME280;33994;50.998;5.864;2022-07-04T04:41:34;101579.53;;;13.81;73.27
48204;BME280;33994;50.998;5.864;2022-07-04T04:44:39;101582.03;;;13.87;73.51
48204;BME280;33994;50.998;5.864;2022-07-04T04:47:43;101588.09;;;13.94;73.29
48204;BME280;33994;50.998;5.864;2022-07-04T04:50:48;101585.38;;;14.00;73.17
48204;BME280;33994;50.998;5.864;2022-07-04T04:53:52;101582.59;;;14.08;73.32
48204;BME280;33994;50.998;5.864;2022-07-04T04:56:57;101589.50;;;14.15;73.17
48204;BME280;33994;50.998;5.864;2022-07-04T05:00:02;101589.31;;;14.24;73.32
48204;BME280;33994;50.998;5.864;2022-07-04T05:03:07;101586.44;;;14.38;73.16
48204;BME280;33994;50.998;5.864;2022-07-04T05:06:12;101578.31;;;14.50;72.87
48204;BME280;33994;50.998;5.864;2022-07-04T05:09:17;101577.16;;;14.64;72.59
48204;BME280;33994;50.998;5.864;2022-07-04T05:12:22;101582.25;;;14.74;72.48
48204;BME280;33994;50.998;5.864;2022-07-04T05:15:26;101578.22;;;14.98;71.90
48204;BME280;33994;50.998;5.864;2022-07-04T05:18:30;101588.03;;;15.33;71.19
48204;BME280;33994;50.998;5.864;2022-07-04T05:21:35;101584.47;;;15.73;69.84
48204;BME280;33994;50.998;5.864;2022-07-04T05:24:40;101582.50;;;15.81;69.42
48204;BME280;33994;50.998;5.864;2022-07-04T05:27:44;101576.44;;;15.78;69.68
48204;BME280;33994;50.998;5.864;2022-07-04T05:30:49;101578.09;;;15.82;69.73
48204;BME280;33994;50.998;5.864;2022-07-04T05:33:53;101571.34;;;16.06;69.44
48204;BME280;33994;50.998;5.864;2022-07-04T05:36:58;101567.97;;;17.25;66.93
48204;BME280;33994;50.998;5.864;2022-07-04T05:40:03;101573.47;;;17.47;65.65
48204;BME280;33994;50.998;5.864;2022-07-04T05:43:07;101572.75;;;18.22;64.12
48204;BME280;33994;50.998;5.864;2022-07-04T05:46:11;101573.50;;;18.51;62.66
48204;BME280;33994;50.998;5.864;2022-07-04T05:49:15;101564.34;;;18.59;62.34
48204;BME280;33994;50.998;5.864;2022-07-04T05:52:20;101561.06;;;19.68;60.18
48204;BME280;33994;50.998;5.864;2022-07-04T05:55:24;101560.91;;;21.49;55.50
48204;BME280;33994;50.998;5.864;2022-07-04T05:58:29;101554.09;;;22.81;52.21
48204;BME280;33994;50.998;5.864;2022-07-04T06:01:33;101551.03;;;23.52;50.06
48204;BME280;33994;50.998;5.864;2022-07-04T06:04:37;101558.72;;;23.58;48.87
48204;BME280;33994;50.998;5.864;2022-07-04T06:07:42;101560.91;;;22.71;50.84
48204;BME280;33994;50.998;5.864;2022-07-04T06:10:47;101557.00;;;22.10;51.69
48204;BME280;33994;50.998;5.864;2022-07-04T06:13:51;101550.44;;;21.63;52.89
48204;BME280;33994;50.998;5.864;2022-07-04T06:16:56;101547.75;;;21.46;53.68
48204;BME280;33994;50.998;5.864;2022-07-04T06:20:00;101552.25;;;21.27;53.91
48204;BME280;33994;50.998;5.864;2022-07-04T06:23:05;101547.63;;;21.11;54.63
48204;BME280;33994;50.998;5.864;2022-07-04T06:26:09;101558.47;;;20.88;55.14
48204;BME280;33994;50.998;5.864;2022-07-04T06:29:14;101555.72;;;20.71;55.22
48204;BME280;33994;50.998;5.864;2022-07-04T06:32:18;101561.09;;;20.50;55.95
48204;BME280;33994;50.998;5.864;2022-07-04T06:35:25;101552.66;;;20.40;55.75
48204;BME280;33994;50.998;5.864;2022-07-04T06:38:48;101554.84;;;20.31;55.97
48204;BME280;33994;50.998;5.864;2022-07-04T06:41:52;101561.13;;;20.28;56.06
48204;BME280;33994;50.998;5.864;2022-07-04T06:44:57;101567.72;;;20.40;56.07
48204;BME280;33994;50.998;5.864;2022-07-04T06:48:05;101569.56;;;20.58;55.61
48204;BME280;33994;50.998;5.864;2022-07-04T06:51:09;101568.47;;;20.44;55.49
48204;BME280;33994;50.998;5.864;2022-07-04T06:54:14;101569.66;;;20.36;56.09
48204;BME280;33994;50.998;5.864;2022-07-04T06:57:18;101566.41;;;20.50;55.82
48204;BME280;33994;50.998;5.864;2022-07-04T07:00:23;101562.53;;;20.57;55.92
48204;BME280;33994;50.998;5.864;2022-07-04T07:03:27;101567.88;;;20.76;55.43
48204;BME280;33994;50.998;5.864;2022-07-04T07:06:32;101564.41;;;20.74;55.28
48204;BME280;33994;50.998;5.864;2022-07-04T07:09:36;101563.56;;;20.74;54.92
48204;BME280;33994;50.998;5.864;2022-07-04T07:12:41;101561.84;;;20.73;54.79
48204;BME280;33994;50.998;5.864;2022-07-04T07:15:45;101559.59;;;20.63;54.86
48204;BME280;33994;50.998;5.864;2022-07-04T07:18:49;101559.34;;;20.88;54.26
48204;BME280;33994;50.998;5.864;2022-07-04T07:21:54;101564.88;;;20.84;53.92
48204;BME280;33994;50.998;5.864;2022-07-04T07:24:58;101570.19;;;20.84;53.84
48204;BME280;33994;50.998;5.864;2022-07-04T07:28:03;101569.03;;;20.89;53.77
48204;BME280;33994;50.998;5.864;2022-07-04T07:31:08;101570.69;;;20.92;53.75
48204;BME280;33994;50.998;5.864;2022-07-04T07:34:12;101573.50;;;20.89;53.44
48204;BME280;33994;50.998;5.864;2022-07-04T07:37:17;101571.63;;;20.91;53.75
48204;BME280;33994;50.998;5.864;2022-07-04T07:40:23;101574.06;;;20.96;53.47
48204;BME280;33994;50.998;5.864;2022-07-04T07:43:27;101575.38;;;21.06;53.14
48204;BME280;33994;50.998;5.864;2022-07-04T07:46:32;101570.78;;;21.09;52.98
48204;BME280;33994;50.998;5.864;2022-07-04T07:49:36;101568.47;;;21.02;53.30
48204;BME280;33994;50.998;5.864;2022-07-04T07:52:41;101567.19;;;21.10;53.31
48204;BME280;33994;50.998;5.864;2022-07-04T07:55:46;101571.44;;;21.14;53.58
48204;BME280;33994;50.998;5.864;2022-07-04T07:58:50;101561.31;;;21.23;53.51
48204;BME280;33994;50.998;5.864;2022-07-04T08:01:55;101558.66;;;21.23;53.35
48204;BME280;33994;50.998;5.864;2022-07-04T08:04:59;101558.75;;;21.38;53.30
48204;BME280;33994;50.998;5.864;2022-07-04T08:08:03;101562.00;;;21.45;52.80
48204;BME280;33994;50.998;5.864;2022-07-04T08:11:08;101559.81;;;21.53;52.58
48204;BME280;33994;50.998;5.864;2022-07-04T08:14:13;101557.97;;;21.55;52.73
48204;BME280;33994;50.998;5.864;2022-07-04T08:17:17;101563.28;;;21.55;52.21
48204;BME280;33994;50.998;5.864;2022-07-04T08:20:21;101559.81;;;21.53;52.01
48204;BME280;33994;50.998;5.864;2022-07-04T08:23:27;101559.97;;;21.50;51.97
48204;BME280;33994;50.998;5.864;2022-07-04T08:26:32;101556.03;;;21.40;51.75
48204;BME280;33994;50.998;5.864;2022-07-04T08:29:36;101551.88;;;21.34;52.09
48204;BME280;33994;50.998;5.864;2022-07-04T08:32:40;101555.53;;;21.32;51.65
48204;BME280;33994;50.998;5.864;2022-07-04T08:35:45;101552.59;;;21.38;51.37
48204;BME280;33994;50.998;5.864;2022-07-04T08:38:49;101556.03;;;21.40;51.03
48204;BME280;33994;50.998;5.864;2022-07-04T08:41:55;101553.06;;;21.46;50.29
48204;BME280;33994;50.998;5.864;2022-07-04T08:45:04;101551.84;;;21.53;50.60
48204;BME280;33994;50.998;5.864;2022-07-04T08:48:09;101555.22;;;21.57;50.77
48204;BME280;33994;50.998;5.864;2022-07-04T08:51:25;101554.72;;;21.66;51.13
48204;BME280;33994;50.998;5.864;2022-07-04T08:54:33;101552.72;;;21.71;50.59
48204;BME280;33994;50.998;5.864;2022-07-04T08:57:56;101559.84;;;21.88;50.17
48204;BME280;33994;50.998;5.864;2022-07-04T09:01:18;101559.59;;;21.94;49.42
48204;BME280;33994;50.998;5.864;2022-07-04T09:04:23;101553.81;;;21.84;49.04
48204;BME280;33994;50.998;5.864;2022-07-04T09:07:27;101549.97;;;21.73;48.93
48204;BME280;33994;50.998;5.864;2022-07-04T09:10:32;101552.97;;;21.67;49.27
48204;BME280;33994;50.998;5.864;2022-07-04T09:13:37;101554.03;;;21.62;49.05
48204;BME280;33994;50.998;5.864;2022-07-04T09:16:42;101551.06;;;21.51;49.14
48204;BME280;33994;50.998;5.864;2022-07-04T09:20:20;101547.75;;;21.46;46.91
48204;BME280;33994;50.998;5.864;2022-07-04T09:23:29;101551.06;;;21.51;47.25
48204;BME280;33994;50.998;5.864;2022-07-04T09:26:40;101549.16;;;21.53;47.44
48204;BME280;33994;50.998;5.864;2022-07-04T09:29:52;101548.88;;;21.59;48.80
48204;BME280;33994;50.998;5.864;2022-07-04T09:32:57;101548.25;;;21.72;48.47
48204;BME280;33994;50.998;5.864;2022-07-04T09:36:14;101544.66;;;21.73;47.94
48204;BME280;33994;50.998;5.864;2022-07-04T09:39:19;101549.72;;;21.77;47.46
48204;BME280;33994;50.998;5.864;2022-07-04T09:42:24;101550.44;;;21.81;47.82
48204;BME280;33994;50.998;5.864;2022-07-04T09:45:28;101547.34;;;21.90;47.81
48204;BME280;33994;50.998;5.864;2022-07-04T09:48:49;101545.94;;;22.00;47.87
48204;BME280;33994;50.998;5.864;2022-07-04T09:51:54;101554.56;;;22.05;47.74
48204;BME280;33994;50.998;5.864;2022-07-04T09:55:00;101551.72;;;22.08;47.00
48204;BME280;33994;50.998;5.864;2022-07-04T10:01:09;101543.44;;;21.97;46.75
48204;BME280;33994;50.998;5.864;2022-07-04T10:04:14;101546.88;;;21.99;47.02
48204;BME280;33994;50.998;5.864;2022-07-04T10:07:32;101546.88;;;21.99;45.05
48204;BME280;33994;50.998;5.864;2022-07-04T10:10:39;101551.97;;;22.04;45.48
48204;BME280;33994;50.998;5.864;2022-07-04T10:13:44;101549.31;;;22.04;45.98
48204;BME280;33994;50.998;5.864;2022-07-04T10:16:49;101538.50;;;22.07;45.79
48204;BME280;33994;50.998;5.864;2022-07-04T10:19:54;101546.72;;;22.02;46.48
48204;BME280;33994;50.998;5.864;2022-07-04T10:22:59;101531.91;;;21.97;46.02
48204;BME280;33994;50.998;5.864;2022-07-04T10:26:04;101534.03;;;21.90;46.63
48204;BME280;33994;50.998;5.864;2022-07-04T10:29:11;101531.06;;;21.96;46.57
48204;BME280;33994;50.998;5.864;2022-07-04T10:32:17;101523.31;;;22.09;46.51
48204;BME280;33994;50.998;5.864;2022-07-04T10:35:51;101522.28;;;22.11;43.90
48204;BME280;33994;50.998;5.864;2022-07-04T10:39:01;101522.34;;;22.10;43.72
48204;BME280;33994;50.998;5.864;2022-07-04T10:42:05;101515.31;;;22.09;43.96
48204;BME280;33994;50.998;5.864;2022-07-04T10:45:33;101516.09;;;22.11;43.80
48204;BME280;33994;50.998;5.864;2022-07-04T10:55:14;101518.03;;;22.25;44.33
48204;BME280;33994;50.998;5.864;2022-07-04T10:58:38;101503.31;;;22.18;43.14
48204;BME280;33994;50.998;5.864;2022-07-04T11:05:03;101495.25;;;22.35;43.64
48204;BME280;33994;50.998;5.864;2022-07-04T11:08:08;101493.00;;;22.27;43.46
48204;BME280;33994;50.998;5.864;2022-07-04T11:11:54;101497.94;;;22.35;43.16
48204;BME280;33994;50.998;5.864;2022-07-04T11:14:58;101480.84;;;22.39;43.05
48204;BME280;33994;50.998;5.864;2022-07-04T11:18:07;101488.22;;;22.34;42.92
48204;BME280;33994;50.998;5.864;2022-07-04T11:21:16;101489.06;;;22.34;42.63
48204;BME280;33994;50.998;5.864;2022-07-04T11:24:20;101483.47;;;22.23;42.54
48204;BME280;33994;50.998;5.864;2022-07-04T11:27:24;101481.41;;;22.13;42.96
48204;BME280;33994;50.998;5.864;2022-07-04T11:30:29;101473.56;;;22.09;43.34
48204;BME280;33994;50.998;5.864;2022-07-04T11:33:34;101471.50;;;22.15;43.72
48204;BME280;33994;50.998;5.864;2022-07-04T11:36:40;101477.38;;;22.21;43.26
48204;BME280;33994;50.998;5.864;2022-07-04T11:39:50;101468.00;;;22.30;43.53
48204;BME280;33994;50.998;5.864;2022-07-04T11:43:04;101463.38;;;22.33;43.86
48204;BME280;33994;50.998;5.864;2022-07-04T11:46:42;101461.94;;;22.44;43.72
48204;BME280;33994;50.998;5.864;2022-07-04T11:52:52;101460.19;;;22.43;43.48
48204;BME280;33994;50.998;5.864;2022-07-04T11:55:58;101466.75;;;22.37;43.03
48204;BME280;33994;50.998;5.864;2022-07-04T11:59:12;101462.44;;;22.34;42.69
48204;BME280;33994;50.998;5.864;2022-07-04T12:02:17;101459.84;;;22.33;42.77
48204;BME280;33994;50.998;5.864;2022-07-04T12:05:21;101457.78;;;22.38;43.10
48204;BME280;33994;50.998;5.864;2022-07-04T12:08:26;101454.03;;;22.42;43.39
48204;BME280;33994;50.998;5.864;2022-07-04T12:11:50;101459.19;;;22.45;42.89
48204;BME280;33994;50.998;5.864;2022-07-04T12:18:02;101458.59;;;22.56;42.83
48204;BME280;33994;50.998;5.864;2022-07-04T12:21:14;101449.09;;;22.68;41.88
48204;BME280;33994;50.998;5.864;2022-07-04T12:24:22;101452.34;;;22.73;41.69
48204;BME280;33994;50.998;5.864;2022-07-04T12:27:27;101452.34;;;22.89;41.86
48204;BME280;33994;50.998;5.864;2022-07-04T12:30:34;101456.31;;;22.97;41.55
48204;BME280;33994;50.998;5.864;2022-07-04T12:33:38;101446.94;;;22.90;41.42
48204;BME280;33994;50.998;5.864;2022-07-04T12:36:54;101450.81;;;22.84;41.48
48204;BME280;33994;50.998;5.864;2022-07-04T12:40:06;101447.91;;;22.89;41.77
48204;BME280;33994;50.998;5.864;2022-07-04T12:43:11;101454.00;;;22.91;41.42
48204;BME280;33994;50.998;5.864;2022-07-04T12:49:29;101442.91;;;22.83;40.60
48204;BME280;33994;50.998;5.864;2022-07-04T12:52:33;101449.34;;;22.79;40.78
48204;BME280;33994;50.998;5.864;2022-07-04T12:55:42;101449.53;;;22.76;40.89
48204;BME280;33994;50.998;5.864;2022-07-04T12:58:46;101438.84;;;22.76;40.92
48204;BME280;33994;50.998;5.864;2022-07-04T13:01:51;101443.59;;;22.87;40.61
48204;BME280;33994;50.998;5.864;2022-07-04T13:04:55;101441.69;;;22.89;39.65
48204;BME280;33994;50.998;5.864;2022-07-04T13:08:00;101448.06;;;22.86;39.96
48204;BME280;33994;50.998;5.864;2022-07-04T13:11:04;101442.72;;;22.86;40.12
48204;BME280;33994;50.998;5.864;2022-07-04T13:14:26;101442.19;;;22.95;40.52
48204;BME280;33994;50.998;5.864;2022-07-04T13:17:30;101443.41;;;23.05;40.22
48204;BME280;33994;50.998;5.864;2022-07-04T13:20:35;101440.63;;;23.07;40.14
48204;BME280;33994;50.998;5.864;2022-07-04T13:23:39;101443.06;;;23.12;40.26
48204;BME280;33994;50.998;5.864;2022-07-04T13:26:44;101438.56;;;23.12;40.11
48204;BME280;33994;50.998;5.864;2022-07-04T13:29:48;101444.59;;;23.00;40.25
48204;BME280;33994;50.998;5.864;2022-07-04T13:32:53;101436.69;;;22.98;40.51
48204;BME280;33994;50.998;5.864;2022-07-04T13:35:57;101441.00;;;23.01;40.29
48204;BME280;33994;50.998;5.864;2022-07-04T13:39:02;101435.66;;;23.01;39.99
48204;BME280;33994;50.998;5.864;2022-07-04T13:42:06;101435.16;;;22.94;39.96
48204;BME280;33994;50.998;5.864;2022-07-04T13:45:11;101434.81;;;23.00;40.17
48204;BME280;33994;50.998;5.864;2022-07-04T13:48:17;101441.00;;;23.01;40.46
48204;BME280;33994;50.998;5.864;2022-07-04T13:51:21;101439.63;;;22.94;41.04
48204;BME280;33994;50.998;5.864;2022-07-04T13:54:26;101431.09;;;22.87;41.14
48204;BME280;33994;50.998;5.864;2022-07-04T13:57:31;101434.63;;;22.88;41.01
48204;BME280;33994;50.998;5.864;2022-07-04T14:00:36;101433.59;;;22.90;40.89
48204;BME280;33994;50.998;5.864;2022-07-04T14:03:42;101436.19;;;22.92;40.65
48204;BME280;33994;50.998;5.864;2022-07-04T14:06:46;101434.81;;;22.84;40.65
48204;BME280;33994;50.998;5.864;2022-07-04T14:09:50;101435.47;;;22.88;40.50
48204;BME280;33994;50.998;5.864;2022-07-04T14:12:54;101424.75;;;22.90;40.15
48204;BME280;33994;50.998;5.864;2022-07-04T14:15:59;101426.72;;;22.86;40.09
48204;BME280;33994;50.998;5.864;2022-07-04T14:19:04;101425.19;;;22.82;40.31
48204;BME280;33994;50.998;5.864;2022-07-04T14:22:09;101418.31;;;22.78;40.64
48204;BME280;33994;50.998;5.864;2022-07-04T14:25:13;101421.91;;;22.77;40.52
48204;BME280;33994;50.998;5.864;2022-07-04T14:28:17;101426.31;;;22.78;40.80
48204;BME280;33994;50.998;5.864;2022-07-04T14:31:22;101414.69;;;22.79;40.41
48204;BME280;33994;50.998;5.864;2022-07-04T14:34:26;101416.06;;;22.86;41.11
48204;BME280;33994;50.998;5.864;2022-07-04T14:37:31;101415.53;;;22.95;41.30
48204;BME280;33994;50.998;5.864;2022-07-04T14:40:35;101415.34;;;22.98;40.81
48204;BME280;33994;50.998;5.864;2022-07-04T14:43:43;101417.06;;;22.99;41.13
48204;BME280;33994;50.998;5.864;2022-07-04T14:46:47;101417.91;;;23.00;41.03
48204;BME280;33994;50.998;5.864;2022-07-04T14:49:52;101415.44;;;22.97;40.61
48204;BME280;33994;50.998;5.864;2022-07-04T14:52:56;101406.78;;;22.93;40.08
48204;BME280;33994;50.998;5.864;2022-07-04T14:56:00;101398.53;;;22.82;40.33
48204;BME280;33994;50.998;5.864;2022-07-04T14:59:05;101398.53;;;22.82;40.76
48204;BME280;33994;50.998;5.864;2022-07-04T15:02:09;101391.66;;;22.78;41.06
48204;BME280;33994;50.998;5.864;2022-07-04T15:05:14;101387.16;;;22.78;41.44
48204;BME280;33994;50.998;5.864;2022-07-04T15:08:18;101390.41;;;22.83;41.48
48204;BME280;33994;50.998;5.864;2022-07-04T15:11:23;101381.75;;;22.80;41.18
48204;BME280;33994;50.998;5.864;2022-07-04T15:14:27;101379.84;;;22.82;41.63
48204;BME280;33994;50.998;5.864;2022-07-04T15:17:31;101372.03;;;22.79;41.92
48204;BME280;33994;50.998;5.864;2022-07-04T15:20:37;101365.56;;;22.83;41.54
48204;BME280;33994;50.998;5.864;2022-07-04T15:23:59;101362.72;;;22.86;41.08
48204;BME280;33994;50.998;5.864;2022-07-04T15:27:17;101373.47;;;22.84;40.75
48204;BME280;33994;50.998;5.864;2022-07-04T15:30:21;101369.94;;;22.84;40.50
48204;BME280;33994;50.998;5.864;2022-07-04T15:33:26;101372.72;;;22.82;41.06
48204;BME280;33994;50.998;5.864;2022-07-04T15:36:33;101370.13;;;22.81;40.94
48204;BME280;33994;50.998;5.864;2022-07-04T15:39:38;101367.44;;;22.81;40.97
48204;BME280;33994;50.998;5.864;2022-07-04T15:42:42;101357.91;;;22.77;41.37
48204;BME280;33994;50.998;5.864;2022-07-04T15:45:47;101360.00;;;22.72;41.28
48204;BME280;33994;50.998;5.864;2022-07-04T15:48:51;101363.63;;;22.71;41.06
48204;BME280;33994;50.998;5.864;2022-07-04T15:51:56;101357.22;;;22.73;41.47
48204;BME280;33994;50.998;5.864;2022-07-04T15:55:00;101361.63;;;22.74;41.20
48204;BME280;33994;50.998;5.864;2022-07-04T15:58:04;101349.75;;;22.80;41.22
48204;BME280;33994;50.998;5.864;2022-07-04T16:01:09;101361.03;;;22.85;41.39
48204;BME280;33994;50.998;5.864;2022-07-04T16:04:13;101351.88;;;22.89;41.08
48204;BME280;33994;50.998;5.864;2022-07-04T16:07:18;101343.78;;;22.91;40.83
48204;BME280;33994;50.998;5.864;2022-07-04T16:10:22;101346.34;;;22.92;40.73
48204;BME280;33994;50.998;5.864;2022-07-04T16:13:26;101340.53;;;22.86;40.60
48204;BME280;33994;50.998;5.864;2022-07-04T16:16:31;101348.59;;;22.84;40.57
48204;BME280;33994;50.998;5.864;2022-07-04T16:19:35;101339.84;;;22.82;40.71
48204;BME280;33994;50.998;5.864;2022-07-04T16:22:40;101332.59;;;22.84;41.19
48204;BME280;33994;50.998;5.864;2022-07-04T16:25:44;101329.38;;;22.79;40.89
48204;BME280;33994;50.998;5.864;2022-07-04T16:28:49;101332.03;;;22.79;41.33
48204;BME280;33994;50.998;5.864;2022-07-04T16:31:53;101327.66;;;22.78;40.72
48204;BME280;33994;50.998;5.864;2022-07-04T16:34:58;101326.13;;;22.74;40.87